sensor_id;sensor_type;location;lat;lon;timestamp;P1;P2;P0
23240;PMS7003;11789;53.482;9.862;2022-07-04T00:00:29;4.00;4.00;3.75
23240;PMS7003;11789;53.482;9.862;2022-07-04T00:02:54;8.00;3.75;2.25
23240;PMS7003;11789;53.482;9.862;2022-07-04T00:05:20;4.00;4.00;3.00
23240;PMS7003;11789;53.482;9.862;2022-07-04T00:07:48;3.50;3.50;3.00
23240;PMS7003;11789;53.482;9.862;2022-07-04T00:10:16;4.50;4.00;3.00
23240;PMS7003;11789;53.482;9.862;2022-07-04T00:12:43;4.00;4.00;3.00
23240;PMS7003;11789;53.482;9.862;2022-07-04T00:15:11;5.25;5.25;4.00
23240;PMS7003;11789;53.482;9.862;2022-07-04T00:17:38;5.00;5.00;4.00
23240;PMS7003;11789;53.482;9.862;2022-07-04T00:20:04;5.25;5.00;4.00
23240;PMS7003;11789;53.482;9.862;2022-07-04T00:22:31;4.00;4.00;4.00
23240;PMS7003;11789;53.482;9.862;2022-07-04T00:24:57;6.75;5.00;4.25
23240;PMS7003;11789;53.482;9.862;2022-07-04T00:27:22;5.25;5.25;4.00
23240;PMS7003;11789;53.482;9.862;2022-07-04T00:29:48;6.00;6.00;4.25
23240;PMS7003;11789;53.482;9.862;2022-07-04T00:32:14;5.00;5.00;4.00
23240;PMS7003;11789;53.482;9.862;2022-07-04T00:34:39;4.25;4.25;3.75
23240;PMS7003;11789;53.482;9.862;2022-07-04T00:37:05;5.00;5.00;4.00
23240;PMS7003;11789;53.482;9.862;2022-07-04T00:39:30;7.75;6.75;6.00
23240;PMS7003;11789;53.482;9.862;2022-07-04T00:41:56;6.50;6.50;5.00
23240;PMS7003;11789;53.482;9.862;2022-07-04T00:44:22;6.25;6.25;5.25
23240;PMS7003;11789;53.482;9.862;2022-07-04T00:46:47;6.00;5.25;4.50
23240;PMS7003;11789;53.482;9.862;2022-07-04T00:49:14;8.25;8.25;5.50
23240;PMS7003;11789;53.482;9.862;2022-07-04T00:51:43;6.25;6.25;5.00
23240;PMS7003;11789;53.482;9.862;2022-07-04T00:54:11;8.50;7.00;5.00
23240;PMS7003;11789;53.482;9.862;2022-07-04T00:56:40;11.00;7.50;6.00
23240;PMS7003;11789;53.482;9.862;2022-07-04T00:59:07;9.25;7.00;6.00
23240;PMS7003;11789;53.482;9.862;2022-07-04T01:01:33;6.25;6.25;5.25
23240;PMS7003;11789;53.482;9.862;2022-07-04T01:04:00;7.50;7.50;5.50
23240;PMS7003;11789;53.482;9.862;2022-07-04T01:06:27;8.50;8.50;6.00
23240;PMS7003;11789;53.482;9.862;2022-07-04T01:08:52;8.50;6.75;5.00
23240;PMS7003;11789;53.482;9.862;2022-07-04T01:11:18;8.50;5.50;4.50
23240;PMS7003;11789;53.482;9.862;2022-07-04T01:13:43;7.00;7.00;5.75
23240;PMS7003;11789;53.482;9.862;2022-07-04T01:16:10;8.75;8.75;6.00
23240;PMS7003;11789;53.482;9.862;2022-07-04T01:18:36;7.00;7.00;4.75
23240;PMS7003;11789;53.482;9.862;2022-07-04T01:21:03;10.75;8.00;6.00
23240;PMS7003;11789;53.482;9.862;2022-07-04T01:23:29;10.75;9.25;7.25
23240;PMS7003;11789;53.482;9.862;2022-07-04T01:25:55;10.00;7.75;5.00
23240;PMS7003;11789;53.482;9.862;2022-07-04T01:28:23;9.75;8.75;6.75
23240;PMS7003;11789;53.482;9.862;2022-07-04T01:30:49;10.00;10.00;8.25
23240;PMS7003;11789;53.482;9.862;2022-07-04T01:33:14;11.00;11.00;8.25
23240;PMS7003;11789;53.482;9.862;2022-07-04T01:35:43;10.25;9.50;8.00
23240;PMS7003;11789;53.482;9.862;2022-07-04T01:38:09;11.75;10.75;8.25
23240;PMS7003;11789;53.482;9.862;2022-07-04T01:40:34;11.25;9.50;7.00
23240;PMS7003;11789;53.482;9.862;2022-07-04T01:43:00;8.75;8.75;8.25
23240;PMS7003;11789;53.482;9.862;2022-07-04T01:45:25;11.25;11.25;8.25
23240;PMS7003;11789;53.482;9.862;2022-07-04T01:47:51;10.00;10.00;7.25
23240;PMS7003;11789;53.482;9.862;2022-07-04T01:50:16;11.00;10.00;8.25
23240;PMS7003;11789;53.482;9.862;2022-07-04T01:52:42;13.75;12.50;9.25
23240;PMS7003;11789;53.482;9.862;2022-07-04T01:55:10;12.50;12.50;9.75
23240;PMS7003;11789;53.482;9.862;2022-07-04T01:57:36;12.75;12.00;9.50
23240;PMS7003;11789;53.482;9.862;2022-07-04T02:00:09;16.75;11.75;9.25
23240;PMS7003;11789;53.482;9.862;2022-07-04T02:02:54;15.50;15.25;9.25
23240;PMS7003;11789;53.482;9.862;2022-07-04T02:05:20;18.50;15.75;10.75
23240;PMS7003;11789;53.482;9.862;2022-07-04T02:07:47;15.00;14.00;10.00
23240;PMS7003;11789;53.482;9.862;2022-07-04T02:10:13;15.25;14.50;10.00
23240;PMS7003;11789;53.482;9.862;2022-07-04T02:12:38;14.25;14.25;9.75
23240;PMS7003;11789;53.482;9.862;2022-07-04T02:15:23;19.00;13.25;10.25
23240;PMS7003;11789;53.482;9.862;2022-07-04T02:17:49;14.50;12.25;10.25
23240;PMS7003;11789;53.482;9.862;2022-07-04T02:20:14;10.00;9.50;7.00
23240;PMS7003;11789;53.482;9.862;2022-07-04T02:22:40;14.00;12.25;9.00
23240;PMS7003;11789;53.482;9.862;2022-07-04T02:25:05;21.25;20.00;12.50
23240;PMS7003;11789;53.482;9.862;2022-07-04T02:27:34;17.25;15.75;10.50
23240;PMS7003;11789;53.482;9.862;2022-07-04T02:29:59;18.00;17.50;12.25
23240;PMS7003;11789;53.482;9.862;2022-07-04T02:32:25;16.50;16.50;11.75
23240;PMS7003;11789;53.482;9.862;2022-07-04T02:34:50;21.00;19.25;13.50
23240;PMS7003;11789;53.482;9.862;2022-07-04T02:37:16;19.00;17.00;11.25
23240;PMS7003;11789;53.482;9.862;2022-07-04T02:39:41;22.50;20.50;13.25
23240;PMS7003;11789;53.482;9.862;2022-07-04T02:42:07;24.25;20.25;13.25
23240;PMS7003;11789;53.482;9.862;2022-07-04T02:44:33;17.25;17.25;12.25
23240;PMS7003;11789;53.482;9.862;2022-07-04T02:46:58;20.75;20.00;13.00
23240;PMS7003;11789;53.482;9.862;2022-07-04T02:49:25;22.00;22.00;14.25
23240;PMS7003;11789;53.482;9.862;2022-07-04T02:51:51;23.50;21.75;15.25
23240;PMS7003;11789;53.482;9.862;2022-07-04T02:54:16;23.75;21.25;13.75
23240;PMS7003;11789;53.482;9.862;2022-07-04T02:56:42;20.50;19.75;15.75
23240;PMS7003;11789;53.482;9.862;2022-07-04T02:59:07;23.25;19.50;15.00
23240;PMS7003;11789;53.482;9.862;2022-07-04T03:01:33;22.00;19.75;13.75
23240;PMS7003;11789;53.482;9.862;2022-07-04T03:04:00;31.50;22.75;15.50
23240;PMS7003;11789;53.482;9.862;2022-07-04T03:06:27;23.75;19.75;14.75
23240;PMS7003;11789;53.482;9.862;2022-07-04T03:08:53;21.75;21.75;16.25
23240;PMS7003;11789;53.482;9.862;2022-07-04T03:11:19;24.75;22.75;14.50
23240;PMS7003;11789;53.482;9.862;2022-07-04T03:13:44;23.25;22.75;14.75
23240;PMS7003;11789;53.482;9.862;2022-07-04T03:16:19;20.25;20.25;15.50
23240;PMS7003;11789;53.482;9.862;2022-07-04T03:18:44;19.50;19.50;15.00
23240;PMS7003;11789;53.482;9.862;2022-07-04T03:21:10;27.00;26.00;17.00
23240;PMS7003;11789;53.482;9.862;2022-07-04T03:23:35;24.00;24.00;15.75
23240;PMS7003;11789;53.482;9.862;2022-07-04T03:26:01;29.50;24.75;16.00
23240;PMS7003;11789;53.482;9.862;2022-07-04T03:28:27;34.25;26.75;17.75
23240;PMS7003;11789;53.482;9.862;2022-07-04T03:30:53;23.00;22.50;13.75
23240;PMS7003;11789;53.482;9.862;2022-07-04T03:33:19;27.25;25.25;16.25
23240;PMS7003;11789;53.482;9.862;2022-07-04T03:35:47;23.75;22.75;15.25
23240;PMS7003;11789;53.482;9.862;2022-07-04T03:38:12;25.25;24.50;16.50
23240;PMS7003;11789;53.482;9.862;2022-07-04T03:40:38;24.25;22.50;15.50
23240;PMS7003;11789;53.482;9.862;2022-07-04T03:43:04;30.25;24.25;16.25
23240;PMS7003;11789;53.482;9.862;2022-07-04T03:45:31;28.75;25.75;17.25
23240;PMS7003;11789;53.482;9.862;2022-07-04T03:47:57;24.25;22.00;14.50
23240;PMS7003;11789;53.482;9.862;2022-07-04T03:50:23;28.50;26.50;16.00
23240;PMS7003;11789;53.482;9.862;2022-07-04T03:52:48;25.75;24.75;15.75
23240;PMS7003;11789;53.482;9.862;2022-07-04T03:55:14;23.00;21.00;14.25
23240;PMS7003;11789;53.482;9.862;2022-07-04T03:57:39;33.50;28.25;17.25
23240;PMS7003;11789;53.482;9.862;2022-07-04T04:00:05;24.00;22.00;15.75
23240;PMS7003;11789;53.482;9.862;2022-07-04T04:02:32;25.50;24.50;16.00
23240;PMS7003;11789;53.482;9.862;2022-07-04T04:04:58;24.00;22.25;14.50
23240;PMS7003;11789;53.482;9.862;2022-07-04T04:07:42;21.75;19.75;14.25
23240;PMS7003;11789;53.482;9.862;2022-07-04T04:10:09;20.25;19.75;13.00
23240;PMS7003;11789;53.482;9.862;2022-07-04T04:12:34;23.25;22.50;16.00
23240;PMS7003;11789;53.482;9.862;2022-07-04T04:15:00;23.00;19.50;14.00
23240;PMS7003;11789;53.482;9.862;2022-07-04T04:17:25;20.50;20.50;12.00
23240;PMS7003;11789;53.482;9.862;2022-07-04T04:19:51;21.25;19.50;14.75
23240;PMS7003;11789;53.482;9.862;2022-07-04T04:22:19;21.75;20.00;12.25
23240;PMS7003;11789;53.482;9.862;2022-07-04T04:24:45;18.75;18.75;13.75
23240;PMS7003;11789;53.482;9.862;2022-07-04T04:27:10;15.00;15.00;10.25
23240;PMS7003;11789;53.482;9.862;2022-07-04T04:29:36;16.75;16.25;11.25
23240;PMS7003;11789;53.482;9.862;2022-07-04T04:32:01;15.75;15.75;10.50
23240;PMS7003;11789;53.482;9.862;2022-07-04T04:34:27;17.75;16.25;11.50
23240;PMS7003;11789;53.482;9.862;2022-07-04T04:36:52;15.75;15.50;12.00
23240;PMS7003;11789;53.482;9.862;2022-07-04T04:39:18;13.00;12.25;8.50
23240;PMS7003;11789;53.482;9.862;2022-07-04T04:41:43;13.75;12.75;9.75
23240;PMS7003;11789;53.482;9.862;2022-07-04T04:44:09;15.75;13.75;9.00
23240;PMS7003;11789;53.482;9.862;2022-07-04T04:46:34;10.50;10.50;7.25
23240;PMS7003;11789;53.482;9.862;2022-07-04T04:49:00;11.00;10.00;7.75
23240;PMS7003;11789;53.482;9.862;2022-07-04T04:51:25;11.50;10.25;7.00
23240;PMS7003;11789;53.482;9.862;2022-07-04T04:53:50;11.50;11.25;9.00
23240;PMS7003;11789;53.482;9.862;2022-07-04T04:56:16;13.50;11.00;8.25
23240;PMS7003;11789;53.482;9.862;2022-07-04T04:58:41;9.00;9.00;6.50
23240;PMS7003;11789;53.482;9.862;2022-07-04T05:01:07;10.00;8.50;6.25
23240;PMS7003;11789;53.482;9.862;2022-07-04T05:03:35;9.75;7.00;6.00
23240;PMS7003;11789;53.482;9.862;2022-07-04T05:06:01;8.25;8.25;6.00
23240;PMS7003;11789;53.482;9.862;2022-07-04T05:08:26;8.75;8.75;6.00
23240;PMS7003;11789;53.482;9.862;2022-07-04T05:10:52;9.25;7.75;5.00
23240;PMS7003;11789;53.482;9.862;2022-07-04T05:13:18;9.25;7.50;5.00
23240;PMS7003;11789;53.482;9.862;2022-07-04T05:15:43;5.00;5.00;5.00
23240;PMS7003;11789;53.482;9.862;2022-07-04T05:18:09;6.50;6.50;5.50
23240;PMS7003;11789;53.482;9.862;2022-07-04T05:20:34;6.00;6.00;4.25
23240;PMS7003;11789;53.482;9.862;2022-07-04T05:23:00;7.25;6.00;5.00
23240;PMS7003;11789;53.482;9.862;2022-07-04T05:25:25;10.75;7.25;5.00
23240;PMS7003;11789;53.482;9.862;2022-07-04T05:27:51;6.00;6.00;5.00
23240;PMS7003;11789;53.482;9.862;2022-07-04T05:30:16;4.50;4.50;3.75
23240;PMS7003;11789;53.482;9.862;2022-07-04T05:32:42;4.25;4.25;3.25
23240;PMS7003;11789;53.482;9.862;2022-07-04T05:35:07;11.00;6.00;4.50
23240;PMS7003;11789;53.482;9.862;2022-07-04T05:37:33;4.50;4.00;3.00
23240;PMS7003;11789;53.482;9.862;2022-07-04T05:39:59;5.00;5.00;4.25
23240;PMS7003;11789;53.482;9.862;2022-07-04T05:42:25;7.50;5.75;4.00
23240;PMS7003;11789;53.482;9.862;2022-07-04T05:44:51;5.50;5.50;4.00
23240;PMS7003;11789;53.482;9.862;2022-07-04T05:47:16;3.50;3.50;3.00
23240;PMS7003;11789;53.482;9.862;2022-07-04T05:49:42;5.25;3.00;2.75
23240;PMS7003;11789;53.482;9.862;2022-07-04T05:52:09;3.25;3.25;3.00
23240;PMS7003;11789;53.482;9.862;2022-07-04T05:54:34;5.50;5.50;4.50
23240;PMS7003;11789;53.482;9.862;2022-07-04T05:57:03;3.50;3.25;2.75
23240;PMS7003;11789;53.482;9.862;2022-07-04T05:59:28;3.50;3.50;3.00
23240;PMS7003;11789;53.482;9.862;2022-07-04T06:01:54;5.50;3.75;2.75
23240;PMS7003;11789;53.482;9.862;2022-07-04T06:04:20;3.50;3.50;3.00
23240;PMS7003;11789;53.482;9.862;2022-07-04T06:06:46;5.00;4.00;3.50
23240;PMS7003;11789;53.482;9.862;2022-07-04T06:09:11;3.50;3.25;3.25
23240;PMS7003;11789;53.482;9.862;2022-07-04T06:11:37;4.50;3.00;2.50
23240;PMS7003;11789;53.482;9.862;2022-07-04T06:14:02;6.00;4.25;4.00
23240;PMS7003;11789;53.482;9.862;2022-07-04T06:16:28;4.00;3.00;2.00
23240;PMS7003;11789;53.482;9.862;2022-07-04T06:18:53;3.50;3.50;3.00
23240;PMS7003;11789;53.482;9.862;2022-07-04T06:21:18;3.00;3.00;3.00
23240;PMS7003;11789;53.482;9.862;2022-07-04T06:23:44;5.50;4.50;3.00
23240;PMS7003;11789;53.482;9.862;2022-07-04T06:26:09;5.00;3.25;2.75
23240;PMS7003;11789;53.482;9.862;2022-07-04T06:28:35;2.00;1.00;0.00
23240;PMS7003;11789;53.482;9.862;2022-07-04T06:31:01;3.00;3.00;3.00
23240;PMS7003;11789;53.482;9.862;2022-07-04T06:33:26;3.50;3.50;2.25
23240;PMS7003;11789;53.482;9.862;2022-07-04T06:35:52;3.00;3.00;3.00
23240;PMS7003;11789;53.482;9.862;2022-07-04T06:38:21;3.00;3.00;2.75
23240;PMS7003;11789;53.482;9.862;2022-07-04T06:40:49;3.00;3.00;2.25
23240;PMS7003;11789;53.482;9.862;2022-07-04T06:43:15;3.00;3.00;2.00
23240;PMS7003;11789;53.482;9.862;2022-07-04T06:45:41;3.00;3.00;2.25
23240;PMS7003;11789;53.482;9.862;2022-07-04T06:48:08;3.00;2.25;1.75
23240;PMS7003;11789;53.482;9.862;2022-07-04T06:50:33;2.25;2.25;1.75
23240;PMS7003;11789;53.482;9.862;2022-07-04T06:53:00;3.25;3.25;2.00
23240;PMS7003;11789;53.482;9.862;2022-07-04T06:55:36;3.00;3.00;3.00
23240;PMS7003;11789;53.482;9.862;2022-07-04T06:58:02;2.00;2.00;2.00
23240;PMS7003;11789;53.482;9.862;2022-07-04T07:00:28;2.00;2.00;1.50
23240;PMS7003;11789;53.482;9.862;2022-07-04T07:03:00;2.00;2.00;2.00
23240;PMS7003;11789;53.482;9.862;2022-07-04T07:05:27;3.00;2.00;2.00
23240;PMS7003;11789;53.482;9.862;2022-07-04T07:07:53;3.75;3.00;2.00
23240;PMS7003;11789;53.482;9.862;2022-07-04T07:10:31;2.00;2.00;2.00
23240;PMS7003;11789;53.482;9.862;2022-07-04T07:13:01;3.00;2.00;1.25
23240;PMS7003;11789;53.482;9.862;2022-07-04T07:15:27;4.00;2.00;2.00
23240;PMS7003;11789;53.482;9.862;2022-07-04T07:17:53;4.00;2.00;1.75
23240;PMS7003;11789;53.482;9.862;2022-07-04T07:20:18;2.00;2.00;2.00
23240;PMS7003;11789;53.482;9.862;2022-07-04T07:22:44;1.00;1.00;1.00
23240;PMS7003;11789;53.482;9.862;2022-07-04T07:25:10;2.00;2.00;2.00
23240;PMS7003;11789;53.482;9.862;2022-07-04T07:27:36;4.75;3.00;2.00
23240;PMS7003;11789;53.482;9.862;2022-07-04T07:30:03;3.00;1.25;1.25
23240;PMS7003;11789;53.482;9.862;2022-07-04T07:32:30;2.00;2.00;2.00
23240;PMS7003;11789;53.482;9.862;2022-07-04T07:34:56;1.00;1.00;1.00
23240;PMS7003;11789;53.482;9.862;2022-07-04T07:37:21;4.00;2.00;2.00
23240;PMS7003;11789;53.482;9.862;2022-07-04T07:39:47;2.00;2.00;1.25
23240;PMS7003;11789;53.482;9.862;2022-07-04T07:42:13;2.00;2.00;2.00
23240;PMS7003;11789;53.482;9.862;2022-07-04T07:44:39;2.25;2.00;1.75
23240;PMS7003;11789;53.482;9.862;2022-07-04T07:47:04;5.00;2.00;1.50
23240;PMS7003;11789;53.482;9.862;2022-07-04T07:49:30;3.00;2.00;2.00
23240;PMS7003;11789;53.482;9.862;2022-07-04T07:51:55;2.25;2.25;2.00
23240;PMS7003;11789;53.482;9.862;2022-07-04T07:54:21;2.75;2.00;1.75
23240;PMS7003;11789;53.482;9.862;2022-07-04T07:56:46;3.00;2.75;2.25
23240;PMS7003;11789;53.482;9.862;2022-07-04T07:59:12;2.00;2.00;1.00
23240;PMS7003;11789;53.482;9.862;2022-07-04T08:01:37;2.25;2.25;2.00
23240;PMS7003;11789;53.482;9.862;2022-07-04T08:04:03;3.00;1.00;1.00
23240;PMS7003;11789;53.482;9.862;2022-07-04T08:06:50;2.00;2.00;2.00
23240;PMS7003;11789;53.482;9.862;2022-07-04T08:09:16;2.00;2.00;2.00
23240;PMS7003;11789;53.482;9.862;2022-07-04T08:11:41;2.00;2.00;2.00
23240;PMS7003;11789;53.482;9.862;2022-07-04T08:14:07;1.00;1.00;1.00
23240;PMS7003;11789;53.482;9.862;2022-07-04T08:16:33;1.75;1.75;1.50
23240;PMS7003;11789;53.482;9.862;2022-07-04T08:18:59;3.00;3.00;2.75
23240;PMS7003;11789;53.482;9.862;2022-07-04T08:21:25;3.00;1.00;1.00
23240;PMS7003;11789;53.482;9.862;2022-07-04T08:23:50;2.50;1.50;1.00
23240;PMS7003;11789;53.482;9.862;2022-07-04T08:26:16;3.00;2.00;1.00
23240;PMS7003;11789;53.482;9.862;2022-07-04T08:28:41;2.00;2.00;2.00
23240;PMS7003;11789;53.482;9.862;2022-07-04T08:31:06;3.00;2.00;1.25
23240;PMS7003;11789;53.482;9.862;2022-07-04T08:33:32;1.00;1.00;0.00
23240;PMS7003;11789;53.482;9.862;2022-07-04T08:35:58;2.25;1.00;1.00
23240;PMS7003;11789;53.482;9.862;2022-07-04T08:38:24;1.33;1.33;1.33
23240;PMS7003;11789;53.482;9.862;2022-07-04T08:40:50;2.50;1.75;1.00
23240;PMS7003;11789;53.482;9.862;2022-07-04T08:43:23;1.00;1.00;1.00
23240;PMS7003;11789;53.482;9.862;2022-07-04T08:45:52;1.00;1.00;1.00
23240;PMS7003;11789;53.482;9.862;2022-07-04T08:48:19;1.00;1.00;1.00
23240;PMS7003;11789;53.482;9.862;2022-07-04T08:50:55;2.00;2.00;1.67
23240;PMS7003;11789;53.482;9.862;2022-07-04T08:53:22;2.00;2.00;2.00
23240;PMS7003;11789;53.482;9.862;2022-07-04T08:55:52;1.67;1.67;1.00
23240;PMS7003;11789;53.482;9.862;2022-07-04T08:58:37;2.00;2.00;1.00
23240;PMS7003;11789;53.482;9.862;2022-07-04T09:01:04;2.00;2.00;1.75
23240;PMS7003;11789;53.482;9.862;2022-07-04T09:03:32;1.33;1.33;1.00
23240;PMS7003;11789;53.482;9.862;2022-07-04T09:05:57;1.00;1.00;1.00
23240;PMS7003;11789;53.482;9.862;2022-07-04T09:08:24;2.33;2.33;2.00
23240;PMS7003;11789;53.482;9.862;2022-07-04T09:10:50;3.00;1.00;1.00
23240;PMS7003;11789;53.482;9.862;2022-07-04T09:13:17;1.00;1.00;1.00
23240;PMS7003;11789;53.482;9.862;2022-07-04T09:15:47;1.00;1.00;1.00
23240;PMS7003;11789;53.482;9.862;2022-07-04T09:20:58;1.00;1.00;1.00
23240;PMS7003;11789;53.482;9.862;2022-07-04T09:23:26;2.00;2.00;2.00
23240;PMS7003;11789;53.482;9.862;2022-07-04T09:26:09;1.00;1.00;1.00
23240;PMS7003;11789;53.482;9.862;2022-07-04T09:28:43;1.00;1.00;1.00
23240;PMS7003;11789;53.482;9.862;2022-07-04T09:31:16;3.00;2.00;2.00
23240;PMS7003;11789;53.482;9.862;2022-07-04T09:33:44;1.67;1.67;1.33
23240;PMS7003;11789;53.482;9.862;2022-07-04T09:36:14;2.00;2.00;1.33
23240;PMS7003;11789;53.482;9.862;2022-07-04T09:38:40;0.67;0.67;0.33
23240;PMS7003;11789;53.482;9.862;2022-07-04T09:41:06;1.00;1.00;0.00
23240;PMS7003;11789;53.482;9.862;2022-07-04T09:44:03;1.00;1.00;1.00
23240;PMS7003;11789;53.482;9.862;2022-07-04T09:46:31;1.50;1.50;1.00
23240;PMS7003;11789;53.482;9.862;2022-07-04T09:48:57;1.00;1.00;1.00
23240;PMS7003;11789;53.482;9.862;2022-07-04T09:57:00;1.00;1.00;1.00
23240;PMS7003;11789;53.482;9.862;2022-07-04T09:59:27;1.67;1.67;1.00
23240;PMS7003;11789;53.482;9.862;2022-07-04T10:02:10;1.00;1.00;1.00
23240;PMS7003;11789;53.482;9.862;2022-07-04T10:04:43;1.00;1.00;1.00
23240;PMS7003;11789;53.482;9.862;2022-07-04T10:07:13;1.67;1.00;1.00
23240;PMS7003;11789;53.482;9.862;2022-07-04T10:09:56;3.00;1.67;1.00
23240;PMS7003;11789;53.482;9.862;2022-07-04T10:12:25;1.67;1.67;1.67
23240;PMS7003;11789;53.482;9.862;2022-07-04T10:14:52;1.00;1.00;1.00
23240;PMS7003;11789;53.482;9.862;2022-07-04T10:17:20;1.67;1.67;1.00
23240;PMS7003;11789;53.482;9.862;2022-07-04T10:19:46;1.00;1.00;1.00
23240;PMS7003;11789;53.482;9.862;2022-07-04T10:22:12;1.00;1.00;1.00
23240;PMS7003;11789;53.482;9.862;2022-07-04T10:24:38;1.00;1.00;1.00
23240;PMS7003;11789;53.482;9.862;2022-07-04T10:27:04;1.00;1.00;1.00
23240;PMS7003;11789;53.482;9.862;2022-07-04T10:29:30;1.00;1.00;1.00
23240;PMS7003;11789;53.482;9.862;2022-07-04T10:31:56;0.67;0.67;0.67
23240;PMS7003;11789;53.482;9.862;2022-07-04T10:34:22;1.00;1.00;1.00
23240;PMS7003;11789;53.482;9.862;2022-07-04T10:36:51;2.00;2.00;2.00
23240;PMS7003;11789;53.482;9.862;2022-07-04T10:39:21;1.00;1.00;0.67
23240;PMS7003;11789;53.482;9.862;2022-07-04T10:41:56;1.00;1.00;1.00
23240;PMS7003;11789;53.482;9.862;2022-07-04T10:44:26;2.00;2.00;1.00
23240;PMS7003;11789;53.482;9.862;2022-07-04T10:47:00;0.00;0.00;0.00
23240;PMS7003;11789;53.482;9.862;2022-07-04T10:49:26;0.33;0.33;0.33
23240;PMS7003;11789;53.482;9.862;2022-07-04T10:54:36;1.00;1.00;1.00
23240;PMS7003;11789;53.482;9.862;2022-07-04T11:02:34;1.00;1.00;1.00
23240;PMS7003;11789;53.482;9.862;2022-07-04T11:17:52;0.33;0.33;0.00
23240;PMS7003;11789;53.482;9.862;2022-07-04T11:20:36;1.00;1.00;1.00
23240;PMS7003;11789;53.482;9.862;2022-07-04T11:23:05;0.00;0.00;0.00
23240;PMS7003;11789;53.482;9.862;2022-07-04T11:25:32;0.67;0.67;0.67
23240;PMS7003;11789;53.482;9.862;2022-07-04T11:27:58;1.00;1.00;1.00
23240;PMS7003;11789;53.482;9.862;2022-07-04T11:30:52;1.00;1.00;1.00
23240;PMS7003;11789;53.482;9.862;2022-07-04T11:33:23;1.00;1.00;1.00
23240;PMS7003;11789;53.482;9.862;2022-07-04T11:36:01;1.00;1.00;1.00
23240;PMS7003;11789;53.482;9.862;2022-07-04T11:38:42;1.67;1.00;1.00
23240;PMS7003;11789;53.482;9.862;2022-07-04T11:41:16;1.67;1.67;1.00
23240;PMS7003;11789;53.482;9.862;2022-07-04T11:44:05;1.00;1.00;1.00
23240;PMS7003;11789;53.482;9.862;2022-07-04T11:47:00;1.00;1.00;1.00
23240;PMS7003;11789;53.482;9.862;2022-07-04T11:49:41;1.00;1.00;1.00
23240;PMS7003;11789;53.482;9.862;2022-07-04T11:52:08;1.00;1.00;1.00
23240;PMS7003;11789;53.482;9.862;2022-07-04T11:54:33;2.00;2.00;2.00
23240;PMS7003;11789;53.482;9.862;2022-07-04T11:57:12;2.00;1.33;1.33
23240;PMS7003;11789;53.482;9.862;2022-07-04T11:59:39;2.00;2.00;1.67
23240;PMS7003;11789;53.482;9.862;2022-07-04T12:04:42;1.67;1.67;1.00
23240;PMS7003;11789;53.482;9.862;2022-07-04T12:07:09;2.00;2.00;2.00
23240;PMS7003;11789;53.482;9.862;2022-07-04T12:09:39;2.00;2.00;2.00
23240;PMS7003;11789;53.482;9.862;2022-07-04T12:12:05;2.33;2.33;2.33
23240;PMS7003;11789;53.482;9.862;2022-07-04T12:14:31;2.00;2.00;2.00
23240;PMS7003;11789;53.482;9.862;2022-07-04T12:17:19;2.00;2.00;1.00
23240;PMS7003;11789;53.482;9.862;2022-07-04T12:19:54;2.00;2.00;2.00
23240;PMS7003;11789;53.482;9.862;2022-07-04T12:22:25;3.67;2.00;1.67
23240;PMS7003;11789;53.482;9.862;2022-07-04T12:24:51;3.00;2.00;1.67
23240;PMS7003;11789;53.482;9.862;2022-07-04T12:27:19;2.00;2.00;2.00
23240;PMS7003;11789;53.482;9.862;2022-07-04T12:29:49;1.25;1.25;1.00
23240;PMS7003;11789;53.482;9.862;2022-07-04T12:32:16;2.67;2.67;2.00
23240;PMS7003;11789;53.482;9.862;2022-07-04T12:34:42;2.00;2.00;2.00
23240;PMS7003;11789;53.482;9.862;2022-07-04T12:37:09;2.00;2.00;2.00
23240;PMS7003;11789;53.482;9.862;2022-07-04T12:39:37;2.00;2.00;2.00
23240;PMS7003;11789;53.482;9.862;2022-07-04T12:42:08;2.00;2.00;2.00
23240;PMS7003;11789;53.482;9.862;2022-07-04T12:44:40;2.00;2.00;2.00
23240;PMS7003;11789;53.482;9.862;2022-07-04T12:47:06;2.33;2.33;2.00
23240;PMS7003;11789;53.482;9.862;2022-07-04T12:49:33;4.00;2.00;2.00
23240;PMS7003;11789;53.482;9.862;2022-07-04T12:52:06;2.00;2.00;2.00
23240;PMS7003;11789;53.482;9.862;2022-07-04T12:54:34;1.50;1.50;1.50
23240;PMS7003;11789;53.482;9.862;2022-07-04T12:57:34;2.00;2.00;2.00
23240;PMS7003;11789;53.482;9.862;2022-07-04T12:59:52;2.00;2.00;1.67
23240;PMS7003;11789;53.482;9.862;2022-07-04T13:02:17;2.00;2.00;2.00
23240;PMS7003;11789;53.482;9.862;2022-07-04T13:04:43;3.00;1.33;1.00
23240;PMS7003;11789;53.482;9.862;2022-07-04T13:07:14;1.00;1.00;1.00
23240;PMS7003;11789;53.482;9.862;2022-07-04T13:09:42;3.67;3.00;2.00
23240;PMS7003;11789;53.482;9.862;2022-07-04T13:12:09;1.00;1.00;1.00
23240;PMS7003;11789;53.482;9.862;2022-07-04T13:14:54;2.00;2.00;2.00
23240;PMS7003;11789;53.482;9.862;2022-07-04T13:17:21;2.00;2.00;2.00
23240;PMS7003;11789;53.482;9.862;2022-07-04T13:19:47;2.00;2.00;1.67
23240;PMS7003;11789;53.482;9.862;2022-07-04T13:22:12;2.00;2.00;1.00
23240;PMS7003;11789;53.482;9.862;2022-07-04T13:24:38;2.67;2.00;1.67
23240;PMS7003;11789;53.482;9.862;2022-07-04T13:27:05;4.67;3.00;2.00
23240;PMS7003;11789;53.482;9.862;2022-07-04T13:29:30;2.00;2.00;2.00
23240;PMS7003;11789;53.482;9.862;2022-07-04T13:31:57;2.00;2.00;2.00
23240;PMS7003;11789;53.482;9.862;2022-07-04T13:34:22;3.00;3.00;3.00
23240;PMS7003;11789;53.482;9.862;2022-07-04T13:36:48;2.67;2.67;2.67
23240;PMS7003;11789;53.482;9.862;2022-07-04T13:39:14;2.00;2.00;2.00
23240;PMS7003;11789;53.482;9.862;2022-07-04T13:41:41;2.67;2.67;2.00
23240;PMS7003;11789;53.482;9.862;2022-07-04T13:44:07;2.00;2.00;2.00
23240;PMS7003;11789;53.482;9.862;2022-07-04T13:46:33;2.00;2.00;2.00
23240;PMS7003;11789;53.482;9.862;2022-07-04T13:49:04;3.00;3.00;3.00
23240;PMS7003;11789;53.482;9.862;2022-07-04T13:51:30;4.00;2.00;2.00
23240;PMS7003;11789;53.482;9.862;2022-07-04T13:53:56;4.00;2.00;2.00
23240;PMS7003;11789;53.482;9.862;2022-07-04T13:56:22;2.00;2.00;2.00
23240;PMS7003;11789;53.482;9.862;2022-07-04T13:58:48;2.00;2.00;2.00
23240;PMS7003;11789;53.482;9.862;2022-07-04T14:01:14;2.33;2.33;2.00
23240;PMS7003;11789;53.482;9.862;2022-07-04T14:03:42;2.00;2.00;1.67
23240;PMS7003;11789;53.482;9.862;2022-07-04T14:06:08;2.67;2.67;2.00
23240;PMS7003;11789;53.482;9.862;2022-07-04T14:08:34;2.67;2.67;2.00
23240;PMS7003;11789;53.482;9.862;2022-07-04T14:11:00;2.33;2.33;2.00
23240;PMS7003;11789;53.482;9.862;2022-07-04T14:13:26;2.00;2.00;2.00
23240;PMS7003;11789;53.482;9.862;2022-07-04T14:15:53;3.00;3.00;2.00
23240;PMS7003;11789;53.482;9.862;2022-07-04T14:18:19;3.00;3.00;2.00
23240;PMS7003;11789;53.482;9.862;2022-07-04T14:20:44;2.00;2.00;2.00
23240;PMS7003;11789;53.482;9.862;2022-07-04T14:23:11;2.67;2.33;2.33
23240;PMS7003;11789;53.482;9.862;2022-07-04T14:25:37;2.33;2.33;2.00
23240;PMS7003;11789;53.482;9.862;2022-07-04T14:28:03;2.00;2.00;2.00
23240;PMS7003;11789;53.482;9.862;2022-07-04T14:30:29;2.67;2.67;2.00
23240;PMS7003;11789;53.482;9.862;2022-07-04T14:32:54;3.33;2.00;2.00
23240;PMS7003;11789;53.482;9.862;2022-07-04T14:35:20;3.00;3.00;3.00
23240;PMS7003;11789;53.482;9.862;2022-07-04T14:37:45;1.67;1.67;1.67
23240;PMS7003;11789;53.482;9.862;2022-07-04T14:40:11;2.00;2.00;2.00
23240;PMS7003;11789;53.482;9.862;2022-07-04T14:42:37;2.67;2.67;2.33
23240;PMS7003;11789;53.482;9.862;2022-07-04T14:45:03;3.00;3.00;2.33
23240;PMS7003;11789;53.482;9.862;2022-07-04T14:47:28;2.00;2.00;2.00